Time;durP1;ratioP1;P1;durP2;ratioP2;P2;SDS_P1;SDS_P2;PMS_P1;PMS_P2;Temp;Humidity;BMP_temperature;BMP_pressure;BME280_temperature;BME280_humidity;BME280_pressure;Samples;Min_cycle;Max_cycle;Signal;HPM_P1;HPM_P2
2021/08/01 00:01:04;;;;;;;1.23;0.40;;;;;;;;;;5034484;28;20434;-59
2021/08/01 00:03:29;;;;;;;2.08;0.50;;;;;;;;;;5034655;28;20387;-59
2021/08/01 00:05:55;;;;;;;2.25;0.60;;;;;;;;;;5034255;28;20020;-59
2021/08/01 00:08:20;;;;;;;1.10;0.22;;;;;;;;;;5034324;28;20330;-60
2021/08/01 00:10:45;;;;;;;3.70;0.52;;;;;;;;;;5034502;28;20044;-60
2021/08/01 00:13:10;;;;;;;1.23;0.50;;;;;;;;;;5034198;28;20025;-59
2021/08/01 00:15:36;;;;;;;0.90;0.32;;;;;;;;;;5034397;28;20571;-59
2021/08/01 00:18:02;;;;;;;1.02;0.30;;;;;;;;;;5034155;28;20044;-59
2021/08/01 00:20:27;;;;;;;0.63;0.40;;;;;;;;;;5034034;28;20013;-59
2021/08/01 00:22:53;;;;;;;0.98;0.30;;;;;;;;;;5034183;28;20071;-59
2021/08/01 00:25:18;;;;;;;2.13;0.60;;;;;;;;;;5016233;28;20032;-59
2021/08/01 00:27:43;;;;;;;1.85;0.50;;;;;;;;;;5034022;28;20025;-59
2021/08/01 00:30:09;;;;;;;1.23;0.50;;;;;;;;;;5033849;28;20033;-59
2021/08/01 00:32:35;;;;;;;1.67;0.73;;;;;;;;;;5034136;28;20536;-58
2021/08/01 00:35:00;;;;;;;0.65;0.22;;;;;;;;;;5033812;28;20104;-59
2021/08/01 00:37:26;;;;;;;1.00;0.20;;;;;;;;;;5033912;28;20032;-59
2021/08/01 00:39:51;;;;;;;2.22;0.73;;;;;;;;;;5033846;28;20518;-59
2021/08/01 00:42:16;;;;;;;0.90;0.20;;;;;;;;;;5033805;28;20035;-59
2021/08/01 00:44:42;;;;;;;0.40;0.28;;;;;;;;;;5033705;28;20613;-59
2021/08/01 00:47:07;;;;;;;0.43;0.30;;;;;;;;;;5033446;28;20025;-59
2021/08/01 00:49:33;;;;;;;1.27;0.30;;;;;;;;;;5033785;28;20438;-59
2021/08/01 00:51:58;;;;;;;1.20;0.32;;;;;;;;;;5033643;28;20024;-59
2021/08/01 00:54:23;;;;;;;3.00;0.98;;;;;;;;;;5033591;28;20461;-59
2021/08/01 00:56:49;;;;;;;0.70;0.32;;;;;;;;;;5033583;28;20452;-59
2021/08/01 00:59:14;;;;;;;1.10;0.40;;;;;;;;;;5033107;28;20368;-59
2021/08/01 01:01:43;;;;;;;1.58;0.30;;;;;;;;;;5033393;28;20482;-60
2021/08/01 01:04:18;;;;;;;0.40;0.30;;;;;;;;;;5033162;28;20370;-59
2021/08/01 01:06:57;;;;;;;2.83;0.57;;;;;;;;;;5033248;28;20017;-59
2021/08/01 01:09:31;;;;;;;0.47;0.25;;;;;;;;;;5033432;28;20778;-59
2021/08/01 01:11:59;;;;;;;1.85;0.47;;;;;;;;;;5033200;28;20068;-59
2021/08/01 01:14:28;;;;;;;0.30;0.30;;;;;;;;;;5033336;28;20116;-59
2021/08/01 01:16:56;;;;;;;0.75;0.20;;;;;;;;;;5032669;28;20036;-58
2021/08/01 01:19:33;;;;;;;1.60;0.80;;;;;;;;;;5033185;28;20018;-59
2021/08/01 01:22:06;;;;;;;1.45;0.30;;;;;;;;;;5033269;28;20017;-59
2021/08/01 01:24:34;;;;;;;1.05;0.47;;;;;;;;;;5033044;28;20025;-59
2021/08/01 01:27:12;;;;;;;1.23;0.40;;;;;;;;;;5033288;28;20029;-60
2021/08/01 01:29:39;;;;;;;1.10;0.45;;;;;;;;;;5032831;28;20014;-59
2021/08/01 01:32:07;;;;;;;1.98;0.28;;;;;;;;;;5033017;28;20040;-59
2021/08/01 01:34:35;;;;;;;3.58;0.52;;;;;;;;;;5033030;28;20021;-60
2021/08/01 01:37:01;;;;;;;0.88;0.40;;;;;;;;;;5033078;28;20075;-60
2021/08/01 01:39:27;;;;;;;3.67;0.65;;;;;;;;;;5033040;28;20391;-59
2021/08/01 01:41:52;;;;;;;1.10;0.40;;;;;;;;;;5032957;28;20109;-59
2021/08/01 01:44:18;;;;;;;1.23;0.30;;;;;;;;;;5032707;28;20399;-59
2021/08/01 01:46:44;;;;;;;0.70;0.30;;;;;;;;;;5032652;28;20028;-60
2021/08/01 01:49:10;;;;;;;1.05;0.20;;;;;;;;;;5032873;28;20010;-59
2021/08/01 01:51:35;;;;;;;0.70;0.38;;;;;;;;;;5032988;28;20029;-59
2021/08/01 01:54:01;;;;;;;0.60;0.35;;;;;;;;;;5032833;28;20017;-59
2021/08/01 01:56:28;;;;;;;1.02;0.43;;;;;;;;;;5032805;28;20029;-59
2021/08/01 01:58:53;;;;;;;1.23;0.40;;;;;;;;;;5032808;28;20415;-59
2021/08/01 02:01:19;;;;;;;2.50;0.40;;;;;;;;;;5032809;28;20458;-59
2021/08/01 02:03:44;;;;;;;0.67;0.37;;;;;;;;;;5032655;28;20078;-59
2021/08/01 02:06:12;;;;;;;1.70;0.40;;;;;;;;;;5032508;28;20243;-60
2021/08/01 02:08:43;;;;;;;1.58;0.38;;;;;;;;;;5032737;28;20028;-60
2021/08/01 02:11:09;;;;;;;2.03;0.63;;;;;;;;;;5032565;28;20349;-59
2021/08/01 02:13:37;;;;;;;1.85;0.85;;;;;;;;;;5032807;28;20028;-59
2021/08/01 02:16:03;;;;;;;0.98;0.25;;;;;;;;;;5032700;28;20087;-59
2021/08/01 02:18:35;;;;;;;2.88;0.85;;;;;;;;;;5032657;28;20075;-59
2021/08/01 02:21:01;;;;;;;0.63;0.20;;;;;;;;;;5032474;28;20072;-59
2021/08/01 02:23:31;;;;;;;0.85;0.40;;;;;;;;;;5032476;28;20487;-59
2021/08/01 02:25:57;;;;;;;2.00;0.57;;;;;;;;;;5032712;28;20032;-59
2021/08/01 02:28:24;;;;;;;0.50;0.40;;;;;;;;;;5034067;28;20028;-60
2021/08/01 02:30:49;;;;;;;0.70;0.45;;;;;;;;;;5018632;28;20108;-59
2021/08/01 02:33:15;;;;;;;1.90;0.28;;;;;;;;;;5036125;28;20057;-59
2021/08/01 02:35:40;;;;;;;2.17;0.22;;;;;;;;;;5036245;28;20261;-59
2021/08/01 02:38:05;;;;;;;0.50;0.30;;;;;;;;;;5036163;28;20411;-59
2021/08/01 02:40:38;;;;;;;0.98;0.38;;;;;;;;;;5035803;28;20025;-59
2021/08/01 02:43:06;;;;;;;1.70;0.20;;;;;;;;;;5035688;28;20021;-59
2021/08/01 02:45:33;;;;;;;0.68;0.50;;;;;;;;;;5035903;28;20480;-59
2021/08/01 02:47:58;;;;;;;0.75;0.47;;;;;;;;;;5035825;28;20096;-59
2021/08/01 02:50:25;;;;;;;1.95;0.57;;;;;;;;;;5035716;28;20441;-59
2021/08/01 02:53:01;;;;;;;1.58;0.40;;;;;;;;;;5036093;28;20115;-59
2021/08/01 02:55:28;;;;;;;0.82;0.70;;;;;;;;;;5035903;28;20020;-59
2021/08/01 02:57:53;;;;;;;0.93;0.40;;;;;;;;;;5035640;28;20018;-59
2021/08/01 03:00:18;;;;;;;1.15;0.40;;;;;;;;;;5033598;28;20046;-59
2021/08/01 03:02:46;;;;;;;2.00;0.40;;;;;;;;;;5035678;28;20025;-58
2021/08/01 03:05:11;;;;;;;0.40;0.32;;;;;;;;;;5035452;28;20017;-59
2021/08/01 03:07:38;;;;;;;0.88;0.40;;;;;;;;;;5034813;28;20475;-59
2021/08/01 03:10:03;;;;;;;0.82;0.70;;;;;;;;;;5035466;28;20014;-59
2021/08/01 03:12:28;;;;;;;2.15;0.57;;;;;;;;;;5035436;28;20494;-59
2021/08/01 03:14:54;;;;;;;1.87;0.40;;;;;;;;;;5035648;28;20028;-59
2021/08/01 03:17:19;;;;;;;0.77;0.50;;;;;;;;;;5035347;28;20254;-59
2021/08/01 03:19:44;;;;;;;2.50;0.77;;;;;;;;;;5035316;28;20044;-59
2021/08/01 03:22:09;;;;;;;0.63;0.40;;;;;;;;;;5035155;28;20096;-58
2021/08/01 03:24:35;;;;;;;0.90;0.28;;;;;;;;;;5035412;28;20014;-59
2021/08/01 03:27:00;;;;;;;0.98;0.40;;;;;;;;;;5035214;28;20061;-59
2021/08/01 03:29:25;;;;;;;0.35;0.28;;;;;;;;;;5034971;28;20026;-59
2021/08/01 03:31:50;;;;;;;1.55;0.73;;;;;;;;;;5034156;28;20029;-59
2021/08/01 03:34:16;;;;;;;0.32;0.25;;;;;;;;;;5034688;28;20143;-59
2021/08/01 03:36:41;;;;;;;0.38;0.25;;;;;;;;;;5034912;28;20029;-59
2021/08/01 03:39:06;;;;;;;0.85;0.45;;;;;;;;;;5034597;28;20037;-60
2021/08/01 03:41:32;;;;;;;0.90;0.40;;;;;;;;;;5034448;28;20040;-59
2021/08/01 03:43:57;;;;;;;0.77;0.22;;;;;;;;;;5034829;28;20013;-59
2021/08/01 03:46:22;;;;;;;2.97;0.50;;;;;;;;;;5034755;28;20092;-58
2021/08/01 03:48:47;;;;;;;1.60;0.50;;;;;;;;;;5034952;28;20109;-59
2021/08/01 03:51:13;;;;;;;0.43;0.28;;;;;;;;;;5034552;28;20029;-59
2021/08/01 03:53:38;;;;;;;1.90;0.40;;;;;;;;;;5034754;28;20045;-59
2021/08/01 03:56:03;;;;;;;2.75;0.60;;;;;;;;;;5034259;28;20029;-59
2021/08/01 03:58:28;;;;;;;0.68;0.20;;;;;;;;;;5034529;28;20037;-59
2021/08/01 04:00:54;;;;;;;0.95;0.30;;;;;;;;;;5034329;28;20060;-59
2021/08/01 04:03:19;;;;;;;1.67;0.32;;;;;;;;;;5034264;28;20025;-60
2021/08/01 04:05:44;;;;;;;1.80;0.50;;;;;;;;;;5034485;28;20376;-59
2021/08/01 04:08:09;;;;;;;0.90;0.47;;;;;;;;;;5034321;28;20304;-59
2021/08/01 04:10:35;;;;;;;1.30;0.55;;;;;;;;;;5034352;28;20014;-60
2021/08/01 04:13:00;;;;;;;0.63;0.30;;;;;;;;;;5016802;28;20025;-59
2021/08/01 04:15:29;;;;;;;1.35;0.75;;;;;;;;;;5034498;28;20029;-59
2021/08/01 04:17:54;;;;;;;0.60;0.30;;;;;;;;;;5034338;28;20029;-59
2021/08/01 04:20:19;;;;;;;0.70;0.40;;;;;;;;;;5033758;28;20025;-60
2021/08/01 04:22:44;;;;;;;1.45;0.50;;;;;;;;;;5033831;28;20029;-60
2021/08/01 04:25:10;;;;;;;0.80;0.40;;;;;;;;;;5034148;28;20033;-60
2021/08/01 04:27:35;;;;;;;0.73;0.40;;;;;;;;;;5034201;28;20021;-59
2021/08/01 04:30:00;;;;;;;0.70;0.50;;;;;;;;;;5033952;28;20104;-59
2021/08/01 04:32:26;;;;;;;1.47;0.50;;;;;;;;;;5034108;28;20600;-60
2021/08/01 04:34:51;;;;;;;1.92;0.45;;;;;;;;;;5033903;28;20259;-60
2021/08/01 04:37:16;;;;;;;0.43;0.30;;;;;;;;;;5032949;28;20083;-59
2021/08/01 04:39:41;;;;;;;0.50;0.22;;;;;;;;;;5032628;28;20025;-59
2021/08/01 04:42:07;;;;;;;1.13;0.43;;;;;;;;;;5033524;28;20029;-59
2021/08/01 04:44:32;;;;;;;0.77;0.40;;;;;;;;;;5033626;28;20032;-60
2021/08/01 04:46:57;;;;;;;0.60;0.35;;;;;;;;;;5034015;28;20021;-60
2021/08/01 04:49:22;;;;;;;2.35;0.40;;;;;;;;;;5033547;28;20021;-59
2021/08/01 04:51:47;;;;;;;1.55;0.50;;;;;;;;;;5033686;28;20112;-59
2021/08/01 04:54:13;;;;;;;0.70;0.30;;;;;;;;;;5033476;28;20034;-59
2021/08/01 04:56:42;;;;;;;1.17;0.28;;;;;;;;;;5033754;28;20498;-59
2021/08/01 04:59:07;;;;;;;1.40;0.40;;;;;;;;;;5033271;28;20049;-60
2021/08/01 05:01:32;;;;;;;0.95;0.30;;;;;;;;;;5033533;28;20032;-60
2021/08/01 05:03:57;;;;;;;2.30;0.35;;;;;;;;;;5033575;28;20104;-59
2021/08/01 05:06:22;;;;;;;0.77;0.60;;;;;;;;;;5033406;28;20036;-60
2021/08/01 05:08:48;;;;;;;0.30;0.20;;;;;;;;;;5033516;28;20259;-60
2021/08/01 05:11:13;;;;;;;0.43;0.40;;;;;;;;;;5032843;28;20026;-60
2021/08/01 05:13:38;;;;;;;0.75;0.52;;;;;;;;;;5033175;28;20067;-59
2021/08/01 05:16:03;;;;;;;0.47;0.47;;;;;;;;;;5033371;28;20380;-59
2021/08/01 05:18:29;;;;;;;0.63;0.40;;;;;;;;;;5033081;28;20257;-60
2021/08/01 05:20:54;;;;;;;0.68;0.30;;;;;;;;;;5032686;28;20059;-59
2021/08/01 05:23:19;;;;;;;1.10;0.67;;;;;;;;;;5031274;28;20059;-60
2021/08/01 05:25:44;;;;;;;1.92;0.77;;;;;;;;;;5033173;28;20031;-59
2021/08/01 05:28:10;;;;;;;1.27;0.45;;;;;;;;;;5032897;28;20372;-59
2021/08/01 05:30:35;;;;;;;1.10;0.30;;;;;;;;;;5030732;28;20016;-60
2021/08/01 05:33:04;;;;;;;0.85;0.40;;;;;;;;;;5021769;28;20074;-59
2021/08/01 05:35:29;;;;;;;1.45;0.40;;;;;;;;;;5032875;28;20074;-60
2021/08/01 05:37:54;;;;;;;1.40;0.40;;;;;;;;;;5033151;28;20029;-59
2021/08/01 05:40:19;;;;;;;1.35;0.40;;;;;;;;;;5032980;28;20029;-59
2021/08/01 05:42:45;;;;;;;0.30;0.20;;;;;;;;;;5032935;28;20052;-59
2021/08/01 05:45:10;;;;;;;2.38;0.40;;;;;;;;;;5032685;28;20022;-59
2021/08/01 05:47:38;;;;;;;0.73;0.30;;;;;;;;;;5031620;28;20045;-60
2021/08/01 05:50:04;;;;;;;1.00;0.30;;;;;;;;;;5015245;28;20045;-59
2021/08/01 05:52:29;;;;;;;0.70;0.30;;;;;;;;;;5032851;28;20049;-60
2021/08/01 05:54:54;;;;;;;0.30;0.30;;;;;;;;;;5033141;28;20107;-59
2021/08/01 05:57:20;;;;;;;0.80;0.40;;;;;;;;;;5032589;28;20026;-59
2021/08/01 05:59:45;;;;;;;1.40;0.40;;;;;;;;;;5032791;28;20056;-59
2021/08/01 06:02:10;;;;;;;2.60;0.50;;;;;;;;;;5032514;28;20044;-59
2021/08/01 06:04:36;;;;;;;0.40;0.20;;;;;;;;;;5036326;28;20246;-59
2021/08/01 06:07:01;;;;;;;1.00;0.20;;;;;;;;;;5036712;28;20061;-59
2021/08/01 06:09:26;;;;;;;1.48;0.47;;;;;;;;;;5036629;28;20282;-59
2021/08/01 06:11:51;;;;;;;0.55;0.47;;;;;;;;;;5036786;28;20087;-60
2021/08/01 06:14:16;;;;;;;0.82;0.52;;;;;;;;;;5036338;28;20391;-59
2021/08/01 06:16:42;;;;;;;1.03;0.50;;;;;;;;;;5036565;28;20072;-58
2021/08/01 06:19:07;;;;;;;0.50;0.35;;;;;;;;;;5036386;28;20250;-58
2021/08/01 06:21:32;;;;;;;1.25;0.43;;;;;;;;;;5036274;28;20029;-59
2021/08/01 06:23:58;;;;;;;1.38;0.40;;;;;;;;;;5036565;28;20021;-59
2021/08/01 06:26:23;;;;;;;1.17;0.30;;;;;;;;;;5036269;28;20028;-59
2021/08/01 06:28:49;;;;;;;0.40;0.22;;;;;;;;;;5036335;28;20465;-59
2021/08/01 06:31:15;;;;;;;2.10;0.63;;;;;;;;;;5036109;28;20017;-59
2021/08/01 06:33:40;;;;;;;0.60;0.25;;;;;;;;;;5036277;28;20026;-59
2021/08/01 06:36:06;;;;;;;0.57;0.30;;;;;;;;;;5036161;28;20022;-59
2021/08/01 06:38:32;;;;;;;1.42;0.57;;;;;;;;;;5036240;28;20391;-59
2021/08/01 06:40:57;;;;;;;0.63;0.25;;;;;;;;;;5035882;28;20029;-58
2021/08/01 06:43:22;;;;;;;0.45;0.30;;;;;;;;;;5035818;28;20032;-59
2021/08/01 06:45:47;;;;;;;1.17;0.45;;;;;;;;;;5036242;28;20476;-59
2021/08/01 06:48:13;;;;;;;1.30;0.50;;;;;;;;;;5036013;28;20703;-59
2021/08/01 06:50:38;;;;;;;1.92;0.40;;;;;;;;;;5036072;28;20255;-59
2021/08/01 06:53:03;;;;;;;0.40;0.40;;;;;;;;;;5035931;28;20105;-59
2021/08/01 06:55:29;;;;;;;0.30;0.20;;;;;;;;;;5034916;28;20021;-59
2021/08/01 06:57:54;;;;;;;1.50;0.38;;;;;;;;;;5035827;28;20018;-59
2021/08/01 07:00:22;;;;;;;0.50;0.40;;;;;;;;;;5035095;28;20476;-59
2021/08/01 07:02:51;;;;;;;0.77;0.32;;;;;;;;;;5034201;28;20032;-60
2021/08/01 07:05:16;;;;;;;1.00;0.57;;;;;;;;;;5034859;28;20437;-60
2021/08/01 07:07:41;;;;;;;2.08;0.60;;;;;;;;;;5035700;28;20092;-59
2021/08/01 07:10:07;;;;;;;1.88;0.30;;;;;;;;;;5035562;28;20491;-59
2021/08/01 07:12:32;;;;;;;2.25;0.63;;;;;;;;;;5035730;28;20021;-59
2021/08/01 07:14:57;;;;;;;1.88;0.30;;;;;;;;;;5034196;28;20487;-60
2021/08/01 07:17:22;;;;;;;2.25;0.40;;;;;;;;;;5034636;28;20026;-59
2021/08/01 07:19:50;;;;;;;1.05;0.22;;;;;;;;;;5035115;28;20029;-59
2021/08/01 07:22:16;;;;;;;0.45;0.35;;;;;;;;;;5033718;28;20014;-59
2021/08/01 07:24:41;;;;;;;1.17;0.68;;;;;;;;;;5035396;28;20017;-60
2021/08/01 07:27:06;;;;;;;0.93;0.30;;;;;;;;;;5035150;28;20029;-59
2021/08/01 07:29:31;;;;;;;3.35;0.65;;;;;;;;;;5035243;28;20262;-60
2021/08/01 07:31:57;;;;;;;1.23;0.30;;;;;;;;;;5017372;28;20025;-59
2021/08/01 07:34:22;;;;;;;2.67;0.75;;;;;;;;;;5035145;28;20091;-60
2021/08/01 07:36:47;;;;;;;1.10;0.50;;;;;;;;;;5034993;28;20029;-59
2021/08/01 07:39:12;;;;;;;1.83;0.43;;;;;;;;;;5034919;28;20029;-59
2021/08/01 07:41:38;;;;;;;0.20;0.20;;;;;;;;;;5035133;28;20095;-59
2021/08/01 07:44:03;;;;;;;1.25;0.30;;;;;;;;;;5034730;28;20279;-59
2021/08/01 07:46:28;;;;;;;0.60;0.17;;;;;;;;;;5033831;28;20100;-58
2021/08/01 07:48:53;;;;;;;0.95;0.38;;;;;;;;;;5016555;28;20014;-59
2021/08/01 07:51:19;;;;;;;1.47;0.60;;;;;;;;;;5033829;28;20530;-59
2021/08/01 07:53:44;;;;;;;0.90;0.38;;;;;;;;;;5034903;28;20259;-59
2021/08/01 07:56:09;;;;;;;1.27;0.60;;;;;;;;;;5033681;28;20021;-59
2021/08/01 07:58:34;;;;;;;0.60;0.35;;;;;;;;;;5034656;28;20423;-58
2021/08/01 08:00:59;;;;;;;1.60;0.43;;;;;;;;;;5034457;28;20400;-59
2021/08/01 08:03:25;;;;;;;2.70;1.10;;;;;;;;;;5034456;28;20291;-59
2021/08/01 08:05:51;;;;;;;0.70;0.38;;;;;;;;;;5034832;28;20101;-59
2021/08/01 08:08:16;;;;;;;0.77;0.20;;;;;;;;;;5034411;28;20033;-59
2021/08/01 08:10:42;;;;;;;1.63;0.40;;;;;;;;;;5034616;28;20010;-59
2021/08/01 08:13:07;;;;;;;1.02;0.25;;;;;;;;;;5034291;28;20036;-60
2021/08/01 08:15:32;;;;;;;1.17;0.22;;;;;;;;;;5034176;28;20064;-59
2021/08/01 08:17:58;;;;;;;0.40;0.30;;;;;;;;;;5034337;28;20045;-59
2021/08/01 08:20:23;;;;;;;3.00;0.90;;;;;;;;;;5034127;28;20029;-59
2021/08/01 08:22:48;;;;;;;0.20;0.10;;;;;;;;;;5034151;28;20023;-59
2021/08/01 08:25:13;;;;;;;2.20;0.30;;;;;;;;;;5033924;28;20045;-59
2021/08/01 08:27:39;;;;;;;2.30;0.63;;;;;;;;;;5033787;28;20049;-59
2021/08/01 08:30:05;;;;;;;1.00;0.20;;;;;;;;;;5033937;28;20021;-59
2021/08/01 08:32:30;;;;;;;0.80;0.20;;;;;;;;;;5016463;28;20068;-59
2021/08/01 08:34:56;;;;;;;2.30;0.30;;;;;;;;;;5033875;28;20376;-59
2021/08/01 08:37:21;;;;;;;0.55;0.30;;;;;;;;;;5033786;28;20024;-60
2021/08/01 08:39:46;;;;;;;3.78;0.70;;;;;;;;;;5033023;28;20543;-59
2021/08/01 08:42:13;;;;;;;0.73;0.35;;;;;;;;;;5032322;28;20423;-60
2021/08/01 08:44:38;;;;;;;2.20;0.65;;;;;;;;;;5033770;28;20025;-59
2021/08/01 08:47:04;;;;;;;0.50;0.30;;;;;;;;;;5032910;28;20017;-59
2021/08/01 08:49:31;;;;;;;0.95;0.50;;;;;;;;;;5033644;28;20048;-59
2021/08/01 08:51:58;;;;;;;0.80;0.20;;;;;;;;;;5016168;28;20408;-60
2021/08/01 08:54:40;;;;;;;1.05;0.40;;;;;;;;;;5032109;28;20385;-60
2021/08/01 08:57:09;;;;;;;1.10;0.40;;;;;;;;;;5016046;28;20071;-58
2021/08/01 08:59:35;;;;;;;0.43;0.40;;;;;;;;;;5048187;23;20052;-59
2021/08/01 09:02:00;;;;;;;0.43;0.27;;;;;;;;;;5053405;28;20017;-59
2021/08/01 09:04:25;;;;;;;0.60;0.20;;;;;;;;;;5053240;28;20645;-60
2021/08/01 09:06:51;;;;;;;0.50;0.20;;;;;;;;;;5053730;28;20282;-58
2021/08/01 09:09:17;;;;;;;1.13;0.30;;;;;;;;;;5053268;28;20027;-58
2021/08/01 09:11:42;;;;;;;0.40;0.28;;;;;;;;;;5053394;28;20452;-59
2021/08/01 09:14:17;;;;;;;0.77;0.30;;;;;;;;;;5053223;28;20029;-59
2021/08/01 09:16:51;;;;;;;0.80;0.20;;;;;;;;;;5053211;28;20051;-59
2021/08/01 09:19:24;;;;;;;1.90;0.43;;;;;;;;;;5053274;28;20500;-59
2021/08/01 09:21:49;;;;;;;0.70;0.30;;;;;;;;;;5053300;28;20024;-59
2021/08/01 09:24:15;;;;;;;0.88;0.32;;;;;;;;;;5052858;28;20024;-59
2021/08/01 09:26:41;;;;;;;1.60;0.43;;;;;;;;;;5053226;28;20521;-59
2021/08/01 09:29:06;;;;;;;1.27;0.30;;;;;;;;;;5052519;28;20024;-59
2021/08/01 09:31:31;;;;;;;0.70;0.30;;;;;;;;;;5053034;28;20025;-59
2021/08/01 09:33:56;;;;;;;2.58;0.50;;;;;;;;;;5053246;28;20260;-59
2021/08/01 09:36:23;;;;;;;1.48;0.60;;;;;;;;;;5052683;28;20020;-59
2021/08/01 09:38:50;;;;;;;3.38;0.45;;;;;;;;;;5052380;28;20416;-59
2021/08/01 09:41:17;;;;;;;1.63;0.30;;;;;;;;;;5052823;28;20025;-59
2021/08/01 09:44:03;;;;;;;1.25;0.30;;;;;;;;;;5052812;28;20021;-59
2021/08/01 09:46:45;;;;;;;1.30;0.82;;;;;;;;;;5052087;28;20040;-59
2021/08/01 09:49:11;;;;;;;1.58;0.20;;;;;;;;;;5052499;28;20017;-59
2021/08/01 09:51:40;;;;;;;1.27;0.40;;;;;;;;;;5052919;28;20051;-59
2021/08/01 09:54:05;;;;;;;0.63;0.25;;;;;;;;;;5052419;28;20032;-58
2021/08/01 09:56:30;;;;;;;1.48;0.63;;;;;;;;;;5052585;28;20024;-58
2021/08/01 09:58:56;;;;;;;1.90;0.43;;;;;;;;;;5052313;28;20066;-59
2021/08/01 10:01:21;;;;;;;1.98;0.63;;;;;;;;;;5052477;28;20037;-59
2021/08/01 10:03:47;;;;;;;0.80;0.20;;;;;;;;;;5052674;28;20112;-58
2021/08/01 10:06:17;;;;;;;2.95;0.93;;;;;;;;;;5052311;28;20709;-58
2021/08/01 10:08:49;;;;;;;0.90;0.28;;;;;;;;;;5052916;28;20017;-59
2021/08/01 10:11:16;;;;;;;1.20;0.60;;;;;;;;;;5052652;28;20104;-58
2021/08/01 10:13:42;;;;;;;1.95;0.32;;;;;;;;;;5052551;28;20027;-59
2021/08/01 10:16:09;;;;;;;1.55;0.40;;;;;;;;;;5052655;28;20480;-58
2021/08/01 10:18:34;;;;;;;1.30;0.30;;;;;;;;;;5051238;28;20387;-59
2021/08/01 10:21:00;;;;;;;2.15;0.68;;;;;;;;;;5052701;28;20040;-58
2021/08/01 10:23:27;;;;;;;0.45;0.30;;;;;;;;;;5052753;28;20055;-59
2021/08/01 10:25:52;;;;;;;1.35;0.38;;;;;;;;;;5052346;28;20044;-58
2021/08/01 10:28:19;;;;;;;1.67;0.45;;;;;;;;;;5052439;28;20025;-59
2021/08/01 10:30:45;;;;;;;1.50;0.40;;;;;;;;;;5051552;28;20398;-58
2021/08/01 10:33:13;;;;;;;2.38;0.50;;;;;;;;;;5052391;28;20521;-59
2021/08/01 10:35:43;;;;;;;2.53;0.30;;;;;;;;;;5052152;28;20029;-59
2021/08/01 10:38:11;;;;;;;1.17;0.60;;;;;;;;;;5052240;28;20074;-59
2021/08/01 10:40:37;;;;;;;1.95;0.40;;;;;;;;;;5052607;28;20044;-59
2021/08/01 10:43:10;;;;;;;2.67;0.40;;;;;;;;;;5052247;28;20071;-58
2021/08/01 10:45:35;;;;;;;1.25;0.40;;;;;;;;;;5052281;28;20499;-59
2021/08/01 10:48:01;;;;;;;1.40;0.50;;;;;;;;;;5052277;28;20025;-59
2021/08/01 10:50:27;;;;;;;1.45;0.40;;;;;;;;;;5055232;28;20059;-59
2021/08/01 10:53:12;;;;;;;1.13;0.38;;;;;;;;;;5055882;28;20035;-58
2021/08/01 10:55:37;;;;;;;0.75;0.35;;;;;;;;;;5055909;28;20028;-59
2021/08/01 10:58:12;;;;;;;3.10;0.77;;;;;;;;;;5055555;28;20029;-58
2021/08/01 11:00:55;;;;;;;0.30;0.20;;;;;;;;;;5055837;28;20053;-58
2021/08/01 11:03:21;;;;;;;1.35;0.17;;;;;;;;;;5055568;28;20021;-59
2021/08/01 11:05:47;;;;;;;2.15;0.30;;;;;;;;;;5055761;28;20033;-59
2021/08/01 11:08:12;;;;;;;1.20;0.63;;;;;;;;;;5055523;28;20025;-59
2021/08/01 11:10:38;;;;;;;1.02;0.30;;;;;;;;;;5055565;28;20095;-58
2021/08/01 11:13:22;;;;;;;1.73;0.45;;;;;;;;;;5055606;28;20463;-59
2021/08/01 11:15:47;;;;;;;1.10;0.40;;;;;;;;;;5055472;28;20032;-59
2021/08/01 11:18:13;;;;;;;3.45;0.50;;;;;;;;;;5055330;28;20064;-59
2021/08/01 11:20:44;;;;;;;1.02;0.50;;;;;;;;;;5055236;28;20096;-58
2021/08/01 11:23:10;;;;;;;1.05;0.30;;;;;;;;;;5055261;28;20036;-59
2021/08/01 11:25:36;;;;;;;0.73;0.30;;;;;;;;;;5055194;28;20013;-58
2021/08/01 11:28:07;;;;;;;1.27;0.52;;;;;;;;;;5055308;28;20406;-59
2021/08/01 11:30:53;;;;;;;2.10;0.63;;;;;;;;;;5055077;28;20071;-58
2021/08/01 11:33:28;;;;;;;1.70;0.40;;;;;;;;;;5055163;28;20021;-58
2021/08/01 11:36:18;;;;;;;1.92;0.50;;;;;;;;;;5054984;28;20021;-59
2021/08/01 11:38:53;;;;;;;2.45;0.93;;;;;;;;;;5054725;28;20460;-58
2021/08/01 11:41:33;;;;;;;1.25;0.47;;;;;;;;;;5054998;28;20048;-58
2021/08/01 11:43:58;;;;;;;0.40;0.40;;;;;;;;;;5054838;28;20016;-59
2021/08/01 11:46:24;;;;;;;3.10;0.50;;;;;;;;;;5054756;28;20017;-59
2021/08/01 11:48:58;;;;;;;1.85;0.30;;;;;;;;;;5054737;28;20068;-59
2021/08/01 11:51:23;;;;;;;;;;;;;;;;;;5055287;28;20039;-59
2021/08/01 11:53:49;;;;;;;2.30;0.60;;;;;;;;;;5054781;28;19909;-58
2021/08/01 11:56:14;;;;;;;1.55;0.43;;;;;;;;;;5054469;28;20025;-59
2021/08/01 11:58:40;;;;;;;0.82;0.32;;;;;;;;;;5054426;28;20041;-59
2021/08/01 12:01:05;;;;;;;0.63;0.50;;;;;;;;;;5053615;28;20492;-59
2021/08/01 12:03:31;;;;;;;2.53;0.40;;;;;;;;;;5054530;28;20106;-58
2021/08/01 12:05:56;;;;;;;1.77;0.65;;;;;;;;;;5054748;28;20472;-59
2021/08/01 12:08:28;;;;;;;1.65;0.40;;;;;;;;;;5054247;28;20017;-59
2021/08/01 12:11:10;;;;;;;1.15;0.30;;;;;;;;;;5049680;28;20464;-59
2021/08/01 12:13:35;;;;;;;0.73;0.20;;;;;;;;;;5038003;28;20575;-58
2021/08/01 12:16:00;;;;;;;0.80;0.40;;;;;;;;;;5039879;28;20029;-58
2021/08/01 12:18:26;;;;;;;0.88;0.32;;;;;;;;;;5052600;28;20017;-58
2021/08/01 12:20:51;;;;;;;0.30;0.30;;;;;;;;;;5054207;28;20020;-59
2021/08/01 12:23:18;;;;;;;0.63;0.40;;;;;;;;;;5054037;28;20039;-59
2021/08/01 12:25:49;;;;;;;3.28;0.70;;;;;;;;;;5054236;28;20017;-59
2021/08/01 12:28:14;;;;;;;1.85;0.47;;;;;;;;;;5053921;28;20066;-58
2021/08/01 12:30:45;;;;;;;0.50;0.30;;;;;;;;;;5053828;28;20033;-59
2021/08/01 12:33:11;;;;;;;1.65;0.30;;;;;;;;;;5054018;28;20040;-59
2021/08/01 12:35:39;;;;;;;1.15;0.30;;;;;;;;;;5053801;28;20036;-59
2021/08/01 12:38:05;;;;;;;1.17;0.20;;;;;;;;;;5052957;28;20471;-59
2021/08/01 12:40:34;;;;;;;0.95;0.30;;;;;;;;;;5053546;28;20060;-59
2021/08/01 12:43:02;;;;;;;1.23;0.30;;;;;;;;;;5053587;28;20039;-59
2021/08/01 12:45:46;;;;;;;3.50;0.77;;;;;;;;;;5053943;28;20067;-60
2021/08/01 12:48:13;;;;;;;1.50;0.50;;;;;;;;;;5053475;28;20029;-58
2021/08/01 12:50:43;;;;;;;1.08;0.68;;;;;;;;;;5053758;28;20472;-59
2021/08/01 12:53:08;;;;;;;0.80;0.28;;;;;;;;;;5053448;28;20379;-59
2021/08/01 12:55:34;;;;;;;2.13;0.70;;;;;;;;;;5053538;28;20029;-60
2021/08/01 12:58:02;;;;;;;1.85;0.50;;;;;;;;;;5053352;28;20117;-58
2021/08/01 13:00:30;;;;;;;2.42;0.50;;;;;;;;;;5053350;28;20476;-58
2021/08/01 13:02:56;;;;;;;1.35;0.35;;;;;;;;;;5053478;28;20017;-59
2021/08/01 13:05:22;;;;;;;1.17;0.40;;;;;;;;;;5053295;28;20017;-58
2021/08/01 13:07:48;;;;;;;1.13;0.20;;;;;;;;;;5053547;28;20025;-59
2021/08/01 13:10:13;;;;;;;0.45;0.30;;;;;;;;;;5053238;28;20055;-58
2021/08/01 13:12:39;;;;;;;1.27;0.52;;;;;;;;;;5053582;28;20021;-58
2021/08/01 13:15:23;;;;;;;1.55;0.45;;;;;;;;;;5053119;28;20013;-59
2021/08/01 13:17:48;;;;;;;0.63;0.40;;;;;;;;;;5053446;28;20021;-59
2021/08/01 13:20:30;;;;;;;2.03;0.53;;;;;;;;;;5052854;28;20071;-59
2021/08/01 13:22:57;;;;;;;1.10;0.45;;;;;;;;;;5053121;28;20297;-58
2021/08/01 13:25:31;;;;;;;0.88;0.45;;;;;;;;;;5053198;28;20021;-59
2021/08/01 13:27:56;;;;;;;;;;;;;;;;;;5052848;28;20040;-58
2021/08/01 13:30:23;;;;;;;1.73;0.60;;;;;;;;;;5052483;28;19955;-58
2021/08/01 13:32:48;;;;;;;2.05;0.57;;;;;;;;;;5052971;28;20246;-58
2021/08/01 13:35:18;;;;;;;1.60;0.35;;;;;;;;;;5052780;28;20463;-59
2021/08/01 13:37:43;;;;;;;1.70;0.60;;;;;;;;;;5053058;28;20021;-58
2021/08/01 13:40:08;;;;;;;1.25;0.50;;;;;;;;;;5053072;28;20024;-59
2021/08/01 13:42:35;;;;;;;1.20;0.52;;;;;;;;;;5052602;28;20023;-58
2021/08/01 13:45:02;;;;;;;1.33;0.47;;;;;;;;;;5053089;28;20021;-59
2021/08/01 13:47:31;;;;;;;0.93;0.32;;;;;;;;;;5052802;28;20029;-58
2021/08/01 13:50:16;;;;;;;0.75;0.20;;;;;;;;;;5052915;28;20028;-59
2021/08/01 13:52:43;;;;;;;1.95;0.57;;;;;;;;;;5050672;28;20029;-58
2021/08/01 13:55:08;;;;;;;1.60;0.50;;;;;;;;;;5051860;28;20013;-59
2021/08/01 13:57:34;;;;;;;1.77;0.43;;;;;;;;;;5052932;28;20035;-58
2021/08/01 14:00:01;;;;;;;1.23;0.60;;;;;;;;;;5052703;28;20041;-58
2021/08/01 14:02:27;;;;;;;2.45;0.60;;;;;;;;;;5052286;28;20037;-58
2021/08/01 14:04:53;;;;;;;1.08;0.43;;;;;;;;;;5052978;28;20017;-58
2021/08/01 14:07:19;;;;;;;1.00;0.30;;;;;;;;;;5052669;28;20013;-58
2021/08/01 14:09:44;;;;;;;1.52;0.43;;;;;;;;;;5052849;28;20025;-58
2021/08/01 14:12:10;;;;;;;3.25;0.60;;;;;;;;;;5052746;28;20048;-58
2021/08/01 14:14:35;;;;;;;1.35;0.52;;;;;;;;;;5052637;28;20021;-58
2021/08/01 14:17:01;;;;;;;2.53;0.60;;;;;;;;;;5052545;28;20044;-58
2021/08/01 14:19:26;;;;;;;2.78;0.60;;;;;;;;;;5052733;28;20468;-59
2021/08/01 14:21:52;;;;;;;1.90;0.30;;;;;;;;;;5052628;28;20464;-58
2021/08/01 14:24:17;;;;;;;1.50;0.43;;;;;;;;;;5053568;28;20282;-59
2021/08/01 14:26:45;;;;;;;1.60;0.65;;;;;;;;;;5056346;28;20464;-58
2021/08/01 14:29:10;;;;;;;1.42;0.50;;;;;;;;;;5055943;28;20020;-59
2021/08/01 14:31:38;;;;;;;1.42;0.50;;;;;;;;;;5056361;28;20032;-59
2021/08/01 14:34:06;;;;;;;2.30;0.65;;;;;;;;;;5055016;28;20021;-58
2021/08/01 14:36:34;;;;;;;2.25;0.60;;;;;;;;;;5056082;28;20112;-59
2021/08/01 14:39:00;;;;;;;1.60;0.70;;;;;;;;;;5055113;28;20019;-58
2021/08/01 14:41:26;;;;;;;0.75;0.30;;;;;;;;;;5056278;28;20021;-59